^^
Saratoga-Weather Station Historical Data
Daily Summary for August 15, 2020 Units:  Metric    English   Both
Daily Weekly Monthly Yearly Custom
  High: Low: Average:
Temperature: 12.3 °C 3.3 °C 7.8 °C
Dew Point: 6.8 °C 2.4 °C 5 °C
Humidity: 96% 67% 83%
Wind Speed: 17.7km/h 0km/h 2.3km/h
Wind Gust: 17.7km/h - -
Wind- - SSE
Pressure: 1024.7 hPa 1016.3 hPa -
Precipitation: 0.0 mm    
Historical Graphs
 
 
Tabular Data for August 15, 2020
Time Temperature Dew Point Pressure Wind Wind Speed Wind Gust Humidity Rainfall Rate (Hourly) solar
00:01 6.6 °C 5.4 °C 1024.7 hPa East 1.4 km/h 3.2 km/h 92% 0.0 mm 0 W/m2
00:06 6.6 °C 5.4 °C 1024.7 hPa East 4.7 km/h 4.8 km/h 92% 0.0 mm 0 W/m2
00:11 6.7 °C 5.3 °C 1024.7 hPa East 3.2 km/h 3.2 km/h 91% 0.0 mm 0 W/m2
00:16 6.8 °C 5.4 °C 1024.7 hPa East 1.4 km/h 4.8 km/h 91% 0.0 mm 0 W/m2
00:21 6.8 °C 5.3 °C 1024.4 hPa East 1.4 km/h 1.6 km/h 90% 0.0 mm 0 W/m2
00:26 6.8 °C 5.3 °C 1024.4 hPa Calm   3.2 km/h 90% 0.0 mm 0 W/m2
00:32 6.7 °C 5.2 °C 1024.4 hPa East 1.4 km/h 1.6 km/h 90% 0.0 mm 0 W/m2
00:37 6.7 °C 5.3 °C 1024.4 hPa Calm   1.6 km/h 91% 0.0 mm 0 W/m2
00:42 6.7 °C 5.3 °C 1024.4 hPa Calm     91% 0.0 mm 0 W/m2
00:47 6.6 °C 5.2 °C 1024.4 hPa Calm     91% 0.0 mm 0 W/m2
00:52 6.6 °C 5.2 °C 1024.4 hPa Calm   1.6 km/h 91% 0.0 mm 0 W/m2
00:57 6.5 °C 5.1 °C 1024.4 hPa East 1.4 km/h 3.2 km/h 91% 0.0 mm 0 W/m2
01:02 6.4 °C 5 °C 1024.0 hPa Calm   4.8 km/h 91% 0.0 mm 0 W/m2
01:07 6.4 °C 5 °C 1024.0 hPa Calm     91% 0.0 mm 0 W/m2
01:12 6.4 °C 5 °C 1024.0 hPa Calm   3.2 km/h 91% 0.0 mm 0 W/m2
01:17 6.3 °C 4.9 °C 1024.0 hPa East 1.4 km/h 1.6 km/h 91% 0.0 mm 0 W/m2
01:22 6.3 °C 4.9 °C 1024.0 hPa Calm   3.2 km/h 91% 0.0 mm 0 W/m2
01:27 6.2 °C 4.8 °C 1024.0 hPa Calm     91% 0.0 mm 0 W/m2
01:32 6.1 °C 4.7 °C 1024.0 hPa Calm     91% 0.0 mm 0 W/m2
01:37 6.1 °C 4.7 °C 1024.0 hPa Calm     91% 0.0 mm 0 W/m2
01:42 5.9 °C 4.5 °C 1024.0 hPa Calm     91% 0.0 mm 0 W/m2
01:47 5.7 °C 4.3 °C 1024.0 hPa Calm     91% 0.0 mm 0 W/m2
01:53 5.6 °C 4.2 °C 1024.0 hPa Calm     91% 0.0 mm 0 W/m2
01:58 5.4 °C 4 °C 1024.0 hPa Calm   3.2 km/h 91% 0.0 mm 0 W/m2
02:03 5.3 °C 4.1 °C 1024.0 hPa Calm     92% 0.0 mm 0 W/m2
02:08 5.3 °C 4.1 °C 1024.0 hPa Calm     92% 0.0 mm 0 W/m2
02:13 5.2 °C 4 °C 1023.7 hPa East 1.4 km/h 1.6 km/h 92% 0.0 mm 0 W/m2
02:18 5.2 °C 4 °C 1024.0 hPa Calm     92% 0.0 mm 0 W/m2
02:23 5.1 °C 3.9 °C 1023.7 hPa Calm     92% 0.0 mm 0 W/m2
02:28 5 °C 4 °C 1023.7 hPa Calm     93% 0.0 mm 0 W/m2
02:33 4.9 °C 3.9 °C 1023.7 hPa Calm     93% 0.0 mm 0 W/m2
02:38 4.9 °C 3.9 °C 1023.7 hPa Calm     93% 0.0 mm 0 W/m2
02:43 4.8 °C 3.8 °C 1023.7 hPa Calm     93% 0.0 mm 0 W/m2
02:48 4.8 °C 3.8 °C 1023.7 hPa Calm     93% 0.0 mm 0 W/m2
02:53 4.7 °C 3.7 °C 1023.4 hPa Calm     93% 0.0 mm 0 W/m2
02:58 4.7 °C 3.7 °C 1023.4 hPa Calm     93% 0.0 mm 0 W/m2
03:04 4.6 °C 3.6 °C 1023.4 hPa Calm     93% 0.0 mm 0 W/m2
03:09 4.6 °C 3.6 °C 1023.4 hPa Calm     93% 0.0 mm 0 W/m2
03:14 4.5 °C 3.5 °C 1023.4 hPa Calm     93% 0.0 mm 0 W/m2
03:19 4.4 °C 3.5 °C 1023.4 hPa Calm     94% 0.0 mm 0 W/m2
03:24 4.4 °C 3.5 °C 1023.4 hPa Calm     94% 0.0 mm 0 W/m2
03:29 4.3 °C 3.4 °C 1023.4 hPa East 3.2 km/h 4.8 km/h 94% 0.0 mm 0 W/m2
03:34 4.4 °C 3.5 °C 1023.4 hPa East 1.4 km/h 1.6 km/h 94% 0.0 mm 0 W/m2
03:39 4.3 °C 3.4 °C 1023.4 hPa Calm   3.2 km/h 94% 0.0 mm 0 W/m2
03:44 4.3 °C 3.4 °C 1023.4 hPa Calm     94% 0.0 mm 0 W/m2
03:49 4.2 °C 3.3 °C 1023.4 hPa Calm     94% 0.0 mm 0 W/m2
03:54 4.1 °C 3.2 °C 1023.4 hPa Calm     94% 0.0 mm 0 W/m2
03:59 4.1 °C 3.2 °C 1023.4 hPa Calm     94% 0.0 mm 0 W/m2
04:04 4 °C 3.1 °C 1023.4 hPa Calm     94% 0.0 mm 0 W/m2
04:09 4 °C 3.1 °C 1023.4 hPa Calm     94% 0.0 mm 0 W/m2
04:14 3.9 °C 3 °C 1023.4 hPa Calm     94% 0.0 mm 0 W/m2
04:19 3.9 °C 3 °C 1023.4 hPa Calm     94% 0.0 mm 0 W/m2
04:24 3.9 °C 3 °C 1023.4 hPa East 3.2 km/h 3.2 km/h 94% 0.0 mm 0 W/m2
04:29 3.8 °C 2.9 °C 1023.4 hPa Calm     94% 0.0 mm 0 W/m2
04:34 3.8 °C 2.9 °C 1023.4 hPa Calm     94% 0.0 mm 0 W/m2
04:39 3.7 °C 2.8 °C 1023.4 hPa Calm   3.2 km/h 94% 0.0 mm 0 W/m2
04:44 3.7 °C 2.8 °C 1023.4 hPa ESE 3.2 km/h 3.2 km/h 94% 0.0 mm 0 W/m2
04:49 3.7 °C 2.8 °C 1023.4 hPa Calm     94% 0.0 mm 0 W/m2
04:54 3.6 °C 2.7 °C 1023.0 hPa ESE 3.2 km/h 3.2 km/h 94% 0.0 mm 0 W/m2
04:59 3.6 °C 2.7 °C 1023.4 hPa Calm     94% 0.0 mm 0 W/m2
05:04 3.4 °C 2.5 °C 1023.4 hPa Calm     94% 0.0 mm 0 W/m2
05:09 3.3 °C 2.4 °C 1023.4 hPa Calm     94% 0.0 mm 0 W/m2
05:14 3.3 °C 2.4 °C 1023.4 hPa Calm     94% 0.0 mm 0 W/m2
05:19 3.3 °C 2.6 °C 1023.4 hPa Calm     95% 0.0 mm 0 W/m2
05:24 3.3 °C 2.6 °C 1023.4 hPa Calm     95% 0.0 mm 0 W/m2
05:29 3.3 °C 2.6 °C 1023.4 hPa ESE 1.4 km/h 1.6 km/h 95% 0.0 mm 0 W/m2
05:34 3.4 °C 2.7 °C 1023.0 hPa ESE 3.2 km/h 3.2 km/h 95% 0.0 mm 0 W/m2
05:39 3.4 °C 2.7 °C 1023.4 hPa Calm     95% 0.0 mm 0 W/m2
05:44 3.4 °C 2.7 °C 1023.4 hPa Calm     95% 0.0 mm 0 W/m2
05:49 3.4 °C 2.7 °C 1023.4 hPa Calm     95% 0.0 mm 0 W/m2
05:54 3.5 °C 2.8 °C 1023.4 hPa Calm     95% 0.0 mm 0 W/m2
05:59 3.5 °C 2.8 °C 1023.4 hPa Calm     95% 0.0 mm 0 W/m2
06:04 3.6 °C 2.9 °C 1023.0 hPa ESE 1.6 km/h 1.6 km/h 95% 0.0 mm 0 W/m2
06:10 3.6 °C 2.9 °C 1023.4 hPa ESE 1.4 km/h 3.2 km/h 95% 0.0 mm 0 W/m2
06:15 3.7 °C 3 °C 1023.0 hPa Calm   4.8 km/h 95% 0.0 mm 0 W/m2
06:20 3.7 °C 3 °C 1023.0 hPa ESE 1.4 km/h 1.6 km/h 95% 0.0 mm 0 W/m2
06:25 3.8 °C 3.1 °C 1023.0 hPa Calm     95% 0.0 mm 0 W/m2
06:30 3.8 °C 3.1 °C 1023.4 hPa Calm     95% 0.0 mm 0 W/m2
06:35 3.8 °C 3.1 °C 1023.4 hPa Calm     95% 0.0 mm 0 W/m2
06:40 3.8 °C 3.1 °C 1023.0 hPa Calm     95% 0.0 mm 0 W/m2
06:45 3.8 °C 3.1 °C 1023.0 hPa Calm     95% 0.0 mm 0 W/m2
06:50 3.8 °C 3.1 °C 1023.0 hPa Calm     95% 0.0 mm 0 W/m2
06:55 3.8 °C 3.1 °C 1023.0 hPa ESE 3.2 km/h 3.2 km/h 95% 0.0 mm 0 W/m2
07:00 3.8 °C 3.1 °C 1023.0 hPa Calm     95% 0.0 mm 0 W/m2
07:05 3.8 °C 3.1 °C 1022.7 hPa Calm     95% 0.0 mm 0 W/m2
07:10 3.8 °C 3.1 °C 1022.7 hPa Calm     95% 0.0 mm 0 W/m2
07:15 3.8 °C 3.1 °C 1022.7 hPa Calm     95% 0.0 mm 0 W/m2
07:20 3.8 °C 3.1 °C 1022.7 hPa Calm     95% 0.0 mm 0 W/m2
07:25 3.8 °C 3.1 °C 1022.7 hPa ESE 3.2 km/h 3.2 km/h 95% 0.0 mm 0 W/m2
07:30 3.8 °C 3.1 °C 1022.7 hPa ESE 1.4 km/h 3.2 km/h 95% 0.0 mm 0 W/m2
07:35 3.8 °C 3.1 °C 1022.7 hPa Calm   3.2 km/h 95% 0.0 mm 0 W/m2
07:40 3.8 °C 3.1 °C 1022.7 hPa Calm   1.6 km/h 95% 0.0 mm 0 W/m2
07:45 3.8 °C 3.1 °C 1022.7 hPa ESE 1.4 km/h 1.6 km/h 95% 0.0 mm 0 W/m2
07:50 3.8 °C 3.1 °C 1022.7 hPa Calm     95% 0.0 mm 5 W/m2
07:56 3.8 °C 3.2 °C 1022.7 hPa Calm   1.6 km/h 96% 0.0 mm 7 W/m2
08:01 3.9 °C 3.3 °C 1022.7 hPa Calm     96% 0.0 mm 12 W/m2
08:06 3.9 °C 3.3 °C 1022.7 hPa Calm     96% 0.0 mm 19 W/m2
08:11 4 °C 3.4 °C 1022.7 hPa ESE 3.2 km/h 3.2 km/h 96% 0.0 mm 19 W/m2
08:16 4.1 °C 3.5 °C 1022.7 hPa ESE 1.4 km/h 3.2 km/h 96% 0.0 mm 21 W/m2
08:21 4.1 °C 3.4 °C 1022.7 hPa ESE 3.2 km/h 3.2 km/h 95% 0.0 mm 25 W/m2
08:26 4.1 °C 3.5 °C 1022.7 hPa ESE 1.4 km/h 1.6 km/h 96% 0.0 mm 26 W/m2
08:31 4.1 °C 3.5 °C 1022.7 hPa ESE 1.4 km/h 3.2 km/h 96% 0.0 mm 28 W/m2
08:36 4.1 °C 3.4 °C 1023.0 hPa ESE 1.4 km/h 3.2 km/h 95% 0.0 mm 32 W/m2
08:41 4.1 °C 3.4 °C 1022.7 hPa ESE 1.4 km/h 4.8 km/h 95% 0.0 mm 32 W/m2
08:46 4.1 °C 3.4 °C 1023.0 hPa ESE 1.4 km/h 3.2 km/h 95% 0.0 mm 33 W/m2
08:51 4.2 °C 3.5 °C 1023.0 hPa Calm     95% 0.0 mm 49 W/m2
08:56 4.2 °C 3.5 °C 1023.0 hPa Calm     95% 0.0 mm 67 W/m2
09:01 4.2 °C 3.5 °C 1023.0 hPa Calm     95% 0.0 mm 69 W/m2
09:06 4.3 °C 3.6 °C 1023.0 hPa Calm     95% 0.0 mm 65 W/m2
09:11 4.3 °C 3.6 °C 1023.4 hPa Calm     95% 0.0 mm 65 W/m2
09:16 4.4 °C 3.8 °C 1023.4 hPa Calm     96% 0.0 mm 67 W/m2
09:21 4.5 °C 3.9 °C 1023.4 hPa Calm     96% 0.0 mm 77 W/m2
09:26 4.6 °C 3.9 °C 1023.4 hPa Calm     95% 0.0 mm 70 W/m2
09:31 4.7 °C 4 °C 1023.4 hPa Calm     95% 0.0 mm 62 W/m2
09:36 4.8 °C 4.2 °C 1023.4 hPa Calm   3.2 km/h 96% 0.0 mm 65 W/m2
09:41 4.9 °C 4.2 °C 1023.4 hPa ESE 1.4 km/h 3.2 km/h 95% 0.0 mm 65 W/m2
09:46 5.1 °C 4.4 °C 1023.4 hPa Calm   3.2 km/h 95% 0.0 mm 76 W/m2
09:51 5.2 °C 4.5 °C 1023.4 hPa ESE 4.7 km/h 4.8 km/h 95% 0.0 mm 93 W/m2
09:56 5.4 °C 4.7 °C 1023.4 hPa East 3.2 km/h 4.8 km/h 95% 0.0 mm 90 W/m2
10:01 5.6 °C 4.9 °C 1023.4 hPa ESE 1.4 km/h 1.6 km/h 95% 0.0 mm 93 W/m2
10:06 5.8 °C 4.9 °C 1023.0 hPa ESE 3.2 km/h 6.4 km/h 94% 0.0 mm 98 W/m2
10:11 5.9 °C 5 °C 1023.0 hPa ESE 4.7 km/h 4.8 km/h 94% 0.0 mm 107 W/m2
10:16 6 °C 5 °C 1022.7 hPa ESE 3.2 km/h 6.4 km/h 93% 0.0 mm 114 W/m2
10:21 6.1 °C 5.1 °C 1023.0 hPa ESE 3.2 km/h 4.8 km/h 93% 0.0 mm 113 W/m2
10:26 6.2 °C 5 °C 1022.7 hPa ESE 3.2 km/h 6.4 km/h 92% 0.0 mm 123 W/m2
10:31 6.2 °C 5 °C 1022.7 hPa East 3.2 km/h 4.8 km/h 92% 0.0 mm 123 W/m2
10:36 6.3 °C 5.1 °C 1022.7 hPa East 3.2 km/h 4.8 km/h 92% 0.0 mm 130 W/m2
10:41 6.4 °C 5 °C 1022.4 hPa East 1.4 km/h 4.8 km/h 91% 0.0 mm 155 W/m2
10:46 6.6 °C 5.2 °C 1022.4 hPa East 3.2 km/h 6.4 km/h 91% 0.0 mm 160 W/m2
10:51 6.8 °C 5.4 °C 1022.4 hPa ENE 3.2 km/h 4.8 km/h 91% 0.0 mm 165 W/m2
10:56 6.9 °C 5.4 °C 1022.4 hPa ESE 3.2 km/h 4.8 km/h 90% 0.0 mm 141 W/m2
11:02 7 °C 5.5 °C 1022.4 hPa ENE 3.2 km/h 4.8 km/h 90% 0.0 mm 146 W/m2
11:07 7.1 °C 5.6 °C 1022.4 hPa East 3.2 km/h 4.8 km/h 90% 0.0 mm 158 W/m2
11:12 7.2 °C 5.5 °C 1022.4 hPa ENE 4.7 km/h 6.4 km/h 89% 0.0 mm 139 W/m2
11:17 7.2 °C 5.5 °C 1022.4 hPa ENE 1.4 km/h 3.2 km/h 89% 0.0 mm 125 W/m2
11:22 7.3 °C 5.6 °C 1022.4 hPa East 1.4 km/h 4.8 km/h 89% 0.0 mm 97 W/m2
11:27 7.4 °C 5.5 °C 1022.4 hPa ESE 1.4 km/h 3.2 km/h 88% 0.0 mm 72 W/m2
11:32 7.6 °C 5.7 °C 1022.4 hPa SE 1.4 km/h 4.8 km/h 88% 0.0 mm 172 W/m2
11:37 7.8 °C 5.9 °C 1022.0 hPa ENE 3.2 km/h 6.4 km/h 88% 0.0 mm 206 W/m2
11:42 7.9 °C 5.9 °C 1022.0 hPa East 3.2 km/h 4.8 km/h 87% 0.0 mm 269 W/m2
11:47 8.2 °C 6.2 °C 1022.0 hPa ENE 4.7 km/h 4.8 km/h 87% 0.0 mm 204 W/m2
11:52 8.4 °C 6.4 °C 1022.0 hPa Calm   3.2 km/h 87% 0.0 mm 197 W/m2
11:57 8.7 °C 6.5 °C 1022.0 hPa North 3.2 km/h 3.2 km/h 86% 0.0 mm 214 W/m2
12:02 9 °C 6.4 °C 1022.0 hPa WNW 3.2 km/h 4.8 km/h 84% 0.0 mm 218 W/m2
12:07 9.3 °C 6.6 °C 1021.7 hPa NE 1.4 km/h 3.2 km/h 83% 0.0 mm 234 W/m2
12:12 9.6 °C 6.5 °C 1021.7 hPa SE 1.4 km/h 4.8 km/h 81% 0.0 mm 250 W/m2
12:17 9.9 °C 6.4 °C 1021.7 hPa SSW 3.2 km/h 14.5 km/h 79% 0.0 mm 330 W/m2
12:22 10.2 °C 6.5 °C 1021.3 hPa NNE 4.7 km/h 6.4 km/h 78% 0.0 mm 327 W/m2
12:27 10.4 °C 6.4 °C 1021.3 hPa ENE 13 km/h 12.9 km/h 76% 0.0 mm 332 W/m2
12:32 10.6 °C 6.4 °C 1021.3 hPa NNW 3.2 km/h 4.8 km/h 75% 0.0 mm 230 W/m2
12:37 10.7 °C 6.4 °C 1021.3 hPa NNE 4.7 km/h 9.7 km/h 75% 0.0 mm 216 W/m2
12:42 10.7 °C 6.3 °C 1021.3 hPa NE 3.2 km/h 4.8 km/h 74% 0.0 mm 176 W/m2
12:47 10.7 °C 6.3 °C 1021.3 hPa WNW 4.7 km/h 6.4 km/h 74% 0.0 mm 183 W/m2
12:52 10.7 °C 6.3 °C 1021.0 hPa NE 4.7 km/h 12.9 km/h 74% 0.0 mm 121 W/m2
12:57 10.8 °C 6.4 °C 1020.7 hPa East 9.7 km/h 12.9 km/h 74% 0.0 mm 176 W/m2
13:02 10.8 °C 6.4 °C 1020.7 hPa NW 17.7 km/h 17.7 km/h 74% 0.0 mm 149 W/m2
13:07 10.8 °C 6.4 °C 1020.7 hPa NNW 4.7 km/h 9.7 km/h 74% 0.0 mm 176 W/m2
13:13 10.8 °C 6.4 °C 1020.7 hPa North 1.4 km/h 17.7 km/h 74% 0.0 mm 165 W/m2
13:18 11 °C 6.3 °C 1020.7 hPa ENE 6.4 km/h 14.5 km/h 73% 0.0 mm 185 W/m2
13:23 11 °C 6.5 °C 1020.3 hPa NNE 4.7 km/h 8 km/h 74% 0.0 mm 163 W/m2
13:28 11 °C 6.1 °C 1020.3 hPa NW 9.7 km/h 17.7 km/h 72% 0.0 mm 149 W/m2
13:33 11.1 °C 6.4 °C 1020.0 hPa SW 3.2 km/h 14.5 km/h 73% 0.0 mm 113 W/m2
13:38 11.2 °C 6.3 °C 1020.0 hPa WNW 11.1 km/h 12.9 km/h 72% 0.0 mm 109 W/m2
13:43 11.1 °C 6.2 °C 1020.0 hPa NW 3.2 km/h 17.7 km/h 72% 0.0 mm 130 W/m2
13:48 11.1 °C 6.4 °C 1020.0 hPa NNW 3.2 km/h 4.8 km/h 73% 0.0 mm 118 W/m2
13:53 11.3 °C 6.4 °C 1019.6 hPa NW 6.4 km/h 14.5 km/h 72% 0.0 mm 158 W/m2
13:58 11.4 °C 6.5 °C 1019.6 hPa WNW 1.4 km/h 6.4 km/h 72% 0.0 mm 253 W/m2
14:03 11.6 °C 6.5 °C 1019.6 hPa WNW 11.1 km/h 14.5 km/h 71% 0.0 mm 163 W/m2
14:08 11.6 °C 6.7 °C 1019.6 hPa NNE 4.7 km/h 6.4 km/h 72% 0.0 mm 181 W/m2
14:13 11.7 °C 6.8 °C 1019.6 hPa North 1.4 km/h 16.1 km/h 72% 0.0 mm 149 W/m2
14:18 11.8 °C 6.5 °C 1019.6 hPa West 1.4 km/h 9.7 km/h 70% 0.0 mm 153 W/m2
14:23 11.8 °C 6.5 °C 1019.6 hPa Calm   6.4 km/h 70% 0.0 mm 163 W/m2
14:28 11.9 °C 6.6 °C 1019.6 hPa NW 1.4 km/h 11.3 km/h 70% 0.0 mm 139 W/m2
14:33 11.9 °C 6.6 °C 1019.6 hPa NNW 6.4 km/h 9.7 km/h 70% 0.0 mm 95 W/m2
14:38 11.9 °C 6.4 °C 1019.3 hPa NW 11.1 km/h 16.1 km/h 69% 0.0 mm 72 W/m2
14:43 11.8 °C 6.5 °C 1019.3 hPa East 4.7 km/h 6.4 km/h 70% 0.0 mm 49 W/m2
14:48 11.8 °C 6.5 °C 1019.0 hPa SSW 1.4 km/h 17.7 km/h 70% 0.0 mm 62 W/m2
14:53 11.9 °C 6.4 °C 1019.0 hPa Calm   3.2 km/h 69% 0.0 mm 58 W/m2
14:58 11.9 °C 6.6 °C 1019.0 hPa East 3.2 km/h 16.1 km/h 70% 0.0 mm 83 W/m2
15:03 12 °C 6.7 °C 1019.0 hPa NNW 1.4 km/h 8 km/h 70% 0.0 mm 105 W/m2
15:08 12.1 °C 6.6 °C 1019.0 hPa WNW 3.2 km/h 4.8 km/h 69% 0.0 mm 107 W/m2
15:13 12.1 °C 6.6 °C 1019.0 hPa NW 6.4 km/h 11.3 km/h 69% 0.0 mm 69 W/m2
15:18 12.1 °C 6.4 °C 1019.0 hPa ENE 4.7 km/h 11.3 km/h 68% 0.0 mm 79 W/m2
15:23 12.2 °C 6.5 °C 1018.6 hPa ESE 6.4 km/h 8 km/h 68% 0.0 mm 60 W/m2
15:28 12.2 °C 6.7 °C 1019.0 hPa East 4.7 km/h 16.1 km/h 69% 0.0 mm 72 W/m2
15:33 12.2 °C 6.5 °C 1019.0 hPa Calm   6.4 km/h 68% 0.0 mm 121 W/m2
15:38 12.2 °C 6.5 °C 1019.0 hPa West 3.2 km/h 12.9 km/h 68% 0.0 mm 74 W/m2
15:43 12.3 °C 6.6 °C 1019.0 hPa ENE 6.4 km/h 6.4 km/h 68% 0.0 mm 69 W/m2
15:48 12.3 °C 6.6 °C 1019.0 hPa ENE 6.4 km/h 6.4 km/h 68% 0.0 mm 81 W/m2
15:53 12.3 °C 6.3 °C 1019.0 hPa East 4.7 km/h 12.9 km/h 67% 0.0 mm 84 W/m2
15:58 12.2 °C 6.3 °C 1019.0 hPa NE 1.4 km/h 8 km/h 67% 0.0 mm 83 W/m2
16:03 12.2 °C 6.5 °C 1019.0 hPa ESE 3.2 km/h 12.9 km/h 68% 0.0 mm 76 W/m2
16:08 12.2 °C 6.5 °C 1019.0 hPa East 3.2 km/h 4.8 km/h 68% 0.0 mm 74 W/m2
16:13 12.1 °C 6.8 °C 1018.6 hPa East 9.7 km/h 9.7 km/h 70% 0.0 mm 76 W/m2
16:18 12.1 °C 6.4 °C 1018.6 hPa East 3.2 km/h 8 km/h 68% 0.0 mm 77 W/m2
16:23 12 °C 6.3 °C 1018.3 hPa East 6.4 km/h 11.3 km/h 68% 0.0 mm 79 W/m2
16:28 12 °C 6.3 °C 1018.3 hPa East 1.4 km/h 3.2 km/h 68% 0.0 mm 72 W/m2
16:33 11.9 °C 6.6 °C 1018.3 hPa East 7.9 km/h 8 km/h 70% 0.0 mm 65 W/m2
16:38 11.9 °C 6.4 °C 1018.0 hPa ENE 3.2 km/h 8 km/h 69% 0.0 mm 60 W/m2
16:43 11.8 °C 6.3 °C 1018.0 hPa ENE 1.4 km/h 9.7 km/h 69% 0.0 mm 56 W/m2
16:48 11.8 °C 6.3 °C 1018.0 hPa East 1.4 km/h 4.8 km/h 69% 0.0 mm 54 W/m2
16:53 11.7 °C 6.2 °C 1018.0 hPa ENE 3.2 km/h 8 km/h 69% 0.0 mm 53 W/m2
16:58 11.6 °C 6.1 °C 1018.0 hPa East 4.7 km/h 8 km/h 69% 0.0 mm 54 W/m2
17:03 11.5 °C 6 °C 1017.6 hPa Calm   3.2 km/h 69% 0.0 mm 49 W/m2
17:08 11.4 °C 6.3 °C 1017.6 hPa SE 4.7 km/h 6.4 km/h 71% 0.0 mm 35 W/m2
17:13 11.2 °C 6.5 °C 1017.3 hPa ENE 3.2 km/h 6.4 km/h 73% 0.0 mm 26 W/m2
17:18 11.1 °C 6.6 °C 1016.9 hPa ENE 1.4 km/h 8 km/h 74% 0.0 mm 21 W/m2
17:23 11 °C 6.7 °C 1016.9 hPa East 1.4 km/h 1.6 km/h 75% 0.0 mm 16 W/m2
17:28 10.9 °C 6.8 °C 1016.9 hPa ENE 1.4 km/h 3.2 km/h 76% 0.0 mm 12 W/m2
17:33 10.7 °C 6.8 °C 1016.9 hPa ENE 3.2 km/h 3.2 km/h 77% 0.0 mm 11 W/m2
17:38 10.6 °C 6.7 °C 1017.3 hPa ESE 3.2 km/h 3.2 km/h 77% 0.0 mm 11 W/m2
17:43 10.4 °C 6.5 °C 1017.3 hPa Calm     77% 0.0 mm 7 W/m2
17:48 10.1 °C 6.4 °C 1017.6 hPa East 6.4 km/h 6.4 km/h 78% 0.0 mm 0 W/m2
17:53 9.9 °C 6.4 °C 1018.0 hPa ESE 1.4 km/h 1.6 km/h 79% 0.0 mm 0 W/m2
17:58 9.9 °C 6.4 °C 1018.0 hPa ESE 1.4 km/h 3.2 km/h 79% 0.0 mm 0 W/m2
18:03 9.8 °C 6.3 °C 1018.0 hPa ENE 4.7 km/h 6.4 km/h 79% 0.0 mm 0 W/m2
18:08 9.9 °C 6.4 °C 1017.6 hPa Calm   3.2 km/h 79% 0.0 mm 0 W/m2
18:13 9.9 °C 6.4 °C 1017.3 hPa East 3.2 km/h 6.4 km/h 79% 0.0 mm 0 W/m2
18:18 9.9 °C 6.2 °C 1017.3 hPa ENE 4.7 km/h 6.4 km/h 78% 0.0 mm 0 W/m2
18:23 9.9 °C 6.2 °C 1017.6 hPa ENE 4.7 km/h 4.8 km/h 78% 0.0 mm 0 W/m2
18:28 9.8 °C 6.1 °C 1017.6 hPa Calm   1.6 km/h 78% 0.0 mm 0 W/m2
18:33 9.7 °C 5.9 °C 1017.3 hPa Calm   14.5 km/h 77% 0.0 mm 0 W/m2
18:38 9.7 °C 5.9 °C 1017.3 hPa Calm   3.2 km/h 77% 0.0 mm 0 W/m2
18:43 9.7 °C 5.7 °C 1017.3 hPa East 6.4 km/h 14.5 km/h 76% 0.0 mm 0 W/m2
18:48 9.6 °C 5.8 °C 1017.3 hPa NNE 1.4 km/h 4.8 km/h 77% 0.0 mm 0 W/m2
18:53 9.4 °C 5.8 °C 1017.3 hPa ENE 1.4 km/h 4.8 km/h 78% 0.0 mm 0 W/m2
18:58 9.2 °C 5.7 °C 1017.6 hPa ENE 3.2 km/h 6.4 km/h 79% 0.0 mm 0 W/m2
19:03 9.1 °C 5.7 °C 1017.6 hPa Calm   3.2 km/h 79% 0.0 mm 0 W/m2
19:08 8.9 °C 5.6 °C 1018.0 hPa NE 1.4 km/h 6.4 km/h 80% 0.0 mm 0 W/m2
19:13 9 °C 5.6 °C 1017.3 hPa NE 1.4 km/h 3.2 km/h 79% 0.0 mm 0 W/m2
19:18 9.1 °C 5.7 °C 1017.3 hPa North 1.4 km/h 1.6 km/h 79% 0.0 mm 0 W/m2
19:23 9.2 °C 5.6 °C 1017.3 hPa North 3.2 km/h 4.8 km/h 78% 0.0 mm 0 W/m2
19:28 9.4 °C 5.6 °C 1017.6 hPa NNE 1.4 km/h 6.4 km/h 77% 0.0 mm 0 W/m2
19:33 9.5 °C 5.7 °C 1018.0 hPa NNW 1.4 km/h 11.3 km/h 77% 0.0 mm 0 W/m2
19:38 9.6 °C 5.8 °C 1017.6 hPa North 4.7 km/h 4.8 km/h 77% 0.0 mm 0 W/m2
19:43 9.6 °C 5.8 °C 1017.6 hPa Calm   6.4 km/h 77% 0.0 mm 0 W/m2
19:48 9.6 °C 5.6 °C 1017.6 hPa NNW 4.7 km/h 14.5 km/h 76% 0.0 mm 0 W/m2
19:53 9.7 °C 5.7 °C 1017.3 hPa NNE 1.4 km/h 4.8 km/h 76% 0.0 mm 0 W/m2
19:58 9.7 °C 5.7 °C 1017.6 hPa NNE 1.4 km/h 4.8 km/h 76% 0.0 mm 0 W/m2
20:03 9.8 °C 5.6 °C 1017.6 hPa NE 1.4 km/h 4.8 km/h 75% 0.0 mm 0 W/m2
20:08 9.8 °C 5.6 °C 1017.6 hPa NNW 1.4 km/h 4.8 km/h 75% 0.0 mm 0 W/m2
20:13 9.8 °C 5.6 °C 1017.6 hPa North 3.2 km/h 8 km/h 75% 0.0 mm 0 W/m2
20:18 9.8 °C 5.6 °C 1017.6 hPa ENE 1.4 km/h 8 km/h 75% 0.0 mm 0 W/m2
20:23 9.8 °C 5.6 °C 1018.0 hPa West 4.7 km/h 11.3 km/h 75% 0.0 mm 0 W/m2
20:28 9.8 °C 5.6 °C 1017.6 hPa North 6.4 km/h 8 km/h 75% 0.0 mm 0 W/m2
20:33 9.8 °C 5.6 °C 1017.6 hPa Calm   12.9 km/h 75% 0.0 mm 0 W/m2
20:38 9.8 °C 5.6 °C 1017.6 hPa NNW 6.4 km/h 9.7 km/h 75% 0.0 mm 0 W/m2
20:44 9.8 °C 5.6 °C 1017.3 hPa NW 3.2 km/h 14.5 km/h 75% 0.0 mm 0 W/m2
20:49 9.7 °C 5.7 °C 1017.3 hPa SSW 7.9 km/h 11.3 km/h 76% 0.0 mm 0 W/m2
20:54 9.7 °C 5.7 °C 1017.3 hPa NW 3.2 km/h 4.8 km/h 76% 0.0 mm 0 W/m2
20:59 9.7 °C 5.7 °C 1016.9 hPa ENE 1.4 km/h 11.3 km/h 76% 0.0 mm 0 W/m2
21:04 9.7 °C 5.7 °C 1017.3 hPa NW 4.7 km/h 4.8 km/h 76% 0.0 mm 0 W/m2
21:09 9.8 °C 5.6 °C 1017.3 hPa South 3.2 km/h 12.9 km/h 75% 0.0 mm 0 W/m2
21:14 9.8 °C 5.6 °C 1017.3 hPa WSW 1.4 km/h 11.3 km/h 75% 0.0 mm 0 W/m2
21:19 9.8 °C 5.6 °C 1016.9 hPa North 3.2 km/h 12.9 km/h 75% 0.0 mm 0 W/m2
21:24 9.9 °C 5.7 °C 1016.9 hPa WNW 6.4 km/h 14.5 km/h 75% 0.0 mm 0 W/m2
21:29 9.9 °C 5.7 °C 1016.9 hPa NNE 3.2 km/h 6.4 km/h 75% 0.0 mm 0 W/m2
21:34 9.9 °C 5.7 °C 1016.9 hPa NNE 1.4 km/h 1.6 km/h 75% 0.0 mm 0 W/m2
21:39 9.8 °C 5.6 °C 1017.3 hPa North 4.7 km/h 4.8 km/h 75% 0.0 mm 0 W/m2
21:44 9.8 °C 5.6 °C 1017.6 hPa NNW 7.9 km/h 9.7 km/h 75% 0.0 mm 0 W/m2
21:49 9.9 °C 5.5 °C 1017.6 hPa Calm   4.8 km/h 74% 0.0 mm 0 W/m2
21:54 10 °C 5.6 °C 1018.0 hPa West 3.2 km/h 6.4 km/h 74% 0.0 mm 0 W/m2
21:59 10.1 °C 5.7 °C 1018.0 hPa North 4.7 km/h 4.8 km/h 74% 0.0 mm 0 W/m2
22:04 10.1 °C 5.5 °C 1018.0 hPa NW 4.7 km/h 11.3 km/h 73% 0.0 mm 0 W/m2
22:09 10.1 °C 5.5 °C 1017.3 hPa WNW 3.2 km/h 3.2 km/h 73% 0.0 mm 0 W/m2
22:14 10.1 °C 5.5 °C 1016.9 hPa NE 3.2 km/h 6.4 km/h 73% 0.0 mm 0 W/m2
22:19 10.1 °C 5.5 °C 1016.9 hPa NNE 1.4 km/h 4.8 km/h 73% 0.0 mm 0 W/m2
22:24 10.1 °C 5.5 °C 1016.6 hPa NE 3.2 km/h 4.8 km/h 73% 0.0 mm 0 W/m2
22:29 10.1 °C 5.5 °C 1016.3 hPa North 3.2 km/h 14.5 km/h 73% 0.0 mm 0 W/m2
22:34 10.1 °C 5.5 °C 1016.3 hPa WNW 7.9 km/h 8 km/h 73% 0.0 mm 0 W/m2
22:39 10.1 °C 5.3 °C 1016.3 hPa West 4.7 km/h 4.8 km/h 72% 0.0 mm 0 W/m2
22:44 10.1 °C 5.3 °C 1016.6 hPa Calm   4.8 km/h 72% 0.0 mm 0 W/m2
22:49 10.2 °C 5.4 °C 1016.3 hPa WNW 1.4 km/h 3.2 km/h 72% 0.0 mm 0 W/m2
22:54 10.3 °C 5.5 °C 1016.6 hPa WNW 4.7 km/h 16.1 km/h 72% 0.0 mm 0 W/m2
22:59 10.4 °C 5.4 °C 1016.3 hPa WNW 4.7 km/h 6.4 km/h 71% 0.0 mm 0 W/m2
23:04 10.6 °C 5.6 °C 1016.6 hPa NNW 4.7 km/h 4.8 km/h 71% 0.0 mm 0 W/m2
23:09 10.6 °C 5.6 °C 1016.6 hPa NW 1.4 km/h 4.8 km/h 71% 0.0 mm 0 W/m2
23:14 10.7 °C 5.5 °C 1016.6 hPa WNW 3.2 km/h 16.1 km/h 70% 0.0 mm 0 W/m2
23:19 10.8 °C 5.5 °C 1016.9 hPa North 4.7 km/h 11.3 km/h 70% 0.0 mm 0 W/m2
23:24 10.8 °C 5.5 °C 1016.9 hPa West 9.7 km/h 11.3 km/h 70% 0.0 mm 0 W/m2
23:29 10.8 °C 5.5 °C 1016.9 hPa WNW 4.7 km/h 4.8 km/h 70% 0.0 mm 0 W/m2
23:34 10.9 °C 5.4 °C 1016.9 hPa Calm   6.4 km/h 69% 0.0 mm 0 W/m2
23:39 10.9 °C 5.4 °C 1016.9 hPa SE 3.2 km/h 6.4 km/h 69% 0.0 mm 0 W/m2
23:44 11 °C 5.5 °C 1016.9 hPa NW 1.4 km/h 9.7 km/h 69% 0.0 mm 0 W/m2
23:49 10.9 °C 5.4 °C 1016.6 hPa NNW 3.2 km/h 6.4 km/h 69% 0.0 mm 0 W/m2
23:54 10.9 °C 5.4 °C 1016.6 hPa NE 1.4 km/h 6.4 km/h 69% 0.0 mm 0 W/m2
23:59 10.9 °C 5.4 °C 1016.6 hPa North 3.2 km/h 4.8 km/h 69% 0.0 mm 0 W/m2
Juneau County Weather
Compliments of Weather Underground - 4 mb